This is the latest recevied weather packets stored in our database for station/object DD3UTS-13. If no packets are shown the sender has not sent any weather packets the latest 1 day(s).
| Time | Temp. | Humidity | Pressure | Rain* | Wind** | Luminosity | Snow |
|---|---|---|---|---|---|---|---|
| 1778025932 | 12.22° C | 88% | 1004.6 hPa | 29.21 mm | - | 0 W/m² | - |
| 1778025332 | 11.67° C | 88% | 1004.7 hPa | 29.21 mm | - | 0 W/m² | - |
| 1778022632 | 12.22° C | 88% | 1004.6 hPa | 28.96 mm | - | 0 W/m² | - |
| 1778021432 | 12.22° C | 87% | 1005.3 hPa | 27.69 mm | - | 0 W/m² | - |
| 1778020832 | 11.67° C | 87% | 1005.5 hPa | 27.18 mm | - | 0 W/m² | - |
| 1778019632 | 11.67° C | 87% | 1005.6 hPa | 25.91 mm | - | 0 W/m² | - |
| 1778019032 | 11.67° C | 86% | 1005.6 hPa | 25.65 mm | - | 0 W/m² | - |
| 1778018432 | 11.67° C | 86% | 1005.9 hPa | 25.15 mm | - | 0 W/m² | - |
| 1778016332 | 11.67° C | 85% | 1006.1 hPa | 23.37 mm | - | 0 W/m² | - |
| 1778015732 | 11.11° C | 85% | 1005.9 hPa | 23.11 mm | - | 0 W/m² | - |
| 1778015432 | 11.67° C | 84% | 1006 hPa | 19.81 mm | - | 0 W/m² | - |
| 1778014532 | 13.89° C | 86% | 1006.5 hPa | 9.91 mm | - | 0 W/m² | - |
| 1778013632 | 13.89° C | 85% | 1005.1 hPa | 9.14 mm | - | 0 W/m² | - |
| 1778011832 | 14.44° C | 84% | 1005.1 hPa | 1.52 mm | - | 0 W/m² | - |
| 1778010932 | 14.44° C | 83% | 1005.2 hPa | 1.27 mm | - | 0 W/m² | - |
| 1778010632 | 14.44° C | 82% | 1005.3 hPa | 1.27 mm | - | 0 W/m² | - |
| 1778010332 | 15° C | 81% | 1005.4 hPa | 1.27 mm | - | 0 W/m² | - |
| 1778010032 | 15° C | 81% | 1005.3 hPa | 1.02 mm | - | 0 W/m² | - |
| 1778008832 | 15° C | 79% | 1005.4 hPa | 0.25 mm | - | 0 W/m² | - |
| 1778008232 | 15° C | 79% | 1005.2 hPa | 0.25 mm | - | 0 W/m² | - |
* Rain latest 24 hours (hover to see other rain measurements)
** Current wind speed in m/s (hover to see current wind gust speed)